sensor_id;sensor_type;location;lat;lon;timestamp;P1;durP1;ratioP1;P2;durP2;ratioP2
16579;SDS011;8402;51.466;6.806;2023-04-06T00:01:10;17.67;;;7.43;;
16579;SDS011;8402;51.466;6.806;2023-04-06T00:03:40;16.07;;;7.83;;
16579;SDS011;8402;51.466;6.806;2023-04-06T00:06:10;14.23;;;6.80;;
16579;SDS011;8402;51.466;6.806;2023-04-06T00:08:43;15.70;;;7.03;;
16579;SDS011;8402;51.466;6.806;2023-04-06T00:11:13;15.67;;;6.97;;
16579;SDS011;8402;51.466;6.806;2023-04-06T00:13:44;17.07;;;7.67;;
16579;SDS011;8402;51.466;6.806;2023-04-06T00:16:17;16.03;;;7.67;;
16579;SDS011;8402;51.466;6.806;2023-04-06T00:18:50;19.03;;;7.27;;
16579;SDS011;8402;51.466;6.806;2023-04-06T00:21:20;17.87;;;8.13;;
16579;SDS011;8402;51.466;6.806;2023-04-06T00:23:50;13.93;;;6.87;;
16579;SDS011;8402;51.466;6.806;2023-04-06T00:26:20;19.40;;;7.33;;
16579;SDS011;8402;51.466;6.806;2023-04-06T00:28:50;15.13;;;7.47;;
16579;SDS011;8402;51.466;6.806;2023-04-06T00:31:22;15.57;;;7.17;;
16579;SDS011;8402;51.466;6.806;2023-04-06T00:33:53;13.83;;;7.00;;
16579;SDS011;8402;51.466;6.806;2023-04-06T00:36:22;18.80;;;7.40;;
16579;SDS011;8402;51.466;6.806;2023-04-06T00:38:56;16.63;;;7.53;;
16579;SDS011;8402;51.466;6.806;2023-04-06T00:41:26;14.60;;;7.03;;
16579;SDS011;8402;51.466;6.806;2023-04-06T00:43:56;14.80;;;7.27;;
16579;SDS011;8402;51.466;6.806;2023-04-06T00:46:29;17.87;;;6.83;;
16579;SDS011;8402;51.466;6.806;2023-04-06T00:48:59;14.77;;;7.73;;
16579;SDS011;8402;51.466;6.806;2023-04-06T00:51:29;18.23;;;7.30;;
16579;SDS011;8402;51.466;6.806;2023-04-06T00:53:59;16.57;;;7.37;;
16579;SDS011;8402;51.466;6.806;2023-04-06T00:56:29;14.43;;;7.23;;
16579;SDS011;8402;51.466;6.806;2023-04-06T00:59:00;17.63;;;7.17;;
16579;SDS011;8402;51.466;6.806;2023-04-06T01:01:33;17.97;;;7.10;;
16579;SDS011;8402;51.466;6.806;2023-04-06T01:04:03;17.20;;;7.30;;
16579;SDS011;8402;51.466;6.806;2023-04-06T01:06:33;13.63;;;6.83;;
16579;SDS011;8402;51.466;6.806;2023-04-06T01:09:03;12.43;;;6.37;;
16579;SDS011;8402;51.466;6.806;2023-04-06T01:11:33;13.57;;;6.70;;
16579;SDS011;8402;51.466;6.806;2023-04-06T01:14:05;14.33;;;6.60;;
16579;SDS011;8402;51.466;6.806;2023-04-06T01:16:38;14.60;;;6.03;;
16579;SDS011;8402;51.466;6.806;2023-04-06T01:19:08;15.37;;;6.30;;
16579;SDS011;8402;51.466;6.806;2023-04-06T01:21:39;15.07;;;6.20;;
16579;SDS011;8402;51.466;6.806;2023-04-06T01:24:13;13.13;;;6.30;;
16579;SDS011;8402;51.466;6.806;2023-04-06T01:26:44;10.20;;;5.60;;
16579;SDS011;8402;51.466;6.806;2023-04-06T01:29:14;15.40;;;6.93;;
16579;SDS011;8402;51.466;6.806;2023-04-06T01:31:44;16.10;;;6.70;;
16579;SDS011;8402;51.466;6.806;2023-04-06T01:34:14;12.97;;;6.40;;
16579;SDS011;8402;51.466;6.806;2023-04-06T01:36:45;12.87;;;6.30;;
16579;SDS011;8402;51.466;6.806;2023-04-06T01:39:17;13.77;;;6.20;;
16579;SDS011;8402;51.466;6.806;2023-04-06T01:41:48;12.00;;;6.50;;
16579;SDS011;8402;51.466;6.806;2023-04-06T01:44:18;15.90;;;6.50;;
16579;SDS011;8402;51.466;6.806;2023-04-06T01:46:48;13.47;;;6.33;;
16579;SDS011;8402;51.466;6.806;2023-04-06T01:49:18;14.50;;;6.73;;
16579;SDS011;8402;51.466;6.806;2023-04-06T01:51:48;14.17;;;6.83;;
16579;SDS011;8402;51.466;6.806;2023-04-06T01:54:21;14.73;;;6.37;;
16579;SDS011;8402;51.466;6.806;2023-04-06T01:56:51;16.67;;;6.60;;
16579;SDS011;8402;51.466;6.806;2023-04-06T01:59:22;15.33;;;6.77;;
16579;SDS011;8402;51.466;6.806;2023-04-06T02:01:52;12.80;;;6.10;;
16579;SDS011;8402;51.466;6.806;2023-04-06T02:04:25;15.13;;;5.93;;
16579;SDS011;8402;51.466;6.806;2023-04-06T02:06:55;11.30;;;5.80;;
16579;SDS011;8402;51.466;6.806;2023-04-06T02:09:27;22.67;;;6.53;;
16579;SDS011;8402;51.466;6.806;2023-04-06T02:11:57;14.17;;;7.17;;
16579;SDS011;8402;51.466;6.806;2023-04-06T02:14:28;14.30;;;6.47;;
16579;SDS011;8402;51.466;6.806;2023-04-06T02:16:58;13.73;;;6.33;;
16579;SDS011;8402;51.466;6.806;2023-04-06T02:19:28;16.53;;;7.10;;
16579;SDS011;8402;51.466;6.806;2023-04-06T02:21:58;15.40;;;6.20;;
16579;SDS011;8402;51.466;6.806;2023-04-06T02:24:31;14.87;;;6.97;;
16579;SDS011;8402;51.466;6.806;2023-04-06T02:27:01;13.63;;;6.70;;
16579;SDS011;8402;51.466;6.806;2023-04-06T02:29:31;12.67;;;6.90;;
16579;SDS011;8402;51.466;6.806;2023-04-06T02:32:02;16.17;;;6.33;;
16579;SDS011;8402;51.466;6.806;2023-04-06T02:34:32;14.73;;;6.67;;
16579;SDS011;8402;51.466;6.806;2023-04-06T02:37:05;19.80;;;6.63;;
16579;SDS011;8402;51.466;6.806;2023-04-06T02:39:38;16.33;;;6.40;;
16579;SDS011;8402;51.466;6.806;2023-04-06T02:42:08;13.57;;;6.43;;
16579;SDS011;8402;51.466;6.806;2023-04-06T02:44:38;14.60;;;6.47;;
16579;SDS011;8402;51.466;6.806;2023-04-06T02:47:08;11.63;;;6.07;;
16579;SDS011;8402;51.466;6.806;2023-04-06T02:49:38;13.67;;;5.83;;
16579;SDS011;8402;51.466;6.806;2023-04-06T02:52:08;12.90;;;6.70;;
16579;SDS011;8402;51.466;6.806;2023-04-06T02:54:41;13.73;;;6.43;;
16579;SDS011;8402;51.466;6.806;2023-04-06T02:57:11;13.37;;;5.97;;
16579;SDS011;8402;51.466;6.806;2023-04-06T02:59:41;13.67;;;6.63;;
16579;SDS011;8402;51.466;6.806;2023-04-06T03:02:11;13.00;;;6.30;;
16579;SDS011;8402;51.466;6.806;2023-04-06T03:04:41;16.17;;;5.87;;
16579;SDS011;8402;51.466;6.806;2023-04-06T03:07:11;11.30;;;5.93;;
16579;SDS011;8402;51.466;6.806;2023-04-06T03:09:44;18.40;;;5.63;;
16579;SDS011;8402;51.466;6.806;2023-04-06T03:12:14;15.07;;;7.03;;
16579;SDS011;8402;51.466;6.806;2023-04-06T03:14:44;14.53;;;6.23;;
16579;SDS011;8402;51.466;6.806;2023-04-06T03:17:14;16.57;;;6.97;;
16579;SDS011;8402;51.466;6.806;2023-04-06T03:19:44;12.40;;;6.17;;
16579;SDS011;8402;51.466;6.806;2023-04-06T03:22:14;11.90;;;5.93;;
16579;SDS011;8402;51.466;6.806;2023-04-06T03:24:46;18.13;;;6.43;;
16579;SDS011;8402;51.466;6.806;2023-04-06T03:27:17;14.27;;;6.30;;
16579;SDS011;8402;51.466;6.806;2023-04-06T03:29:47;15.67;;;6.00;;
16579;SDS011;8402;51.466;6.806;2023-04-06T03:32:16;12.70;;;6.37;;
16579;SDS011;8402;51.466;6.806;2023-04-06T03:34:47;15.27;;;6.77;;
16579;SDS011;8402;51.466;6.806;2023-04-06T03:37:18;20.20;;;6.37;;
16579;SDS011;8402;51.466;6.806;2023-04-06T03:39:51;18.47;;;6.77;;
16579;SDS011;8402;51.466;6.806;2023-04-06T03:42:21;12.37;;;6.90;;
16579;SDS011;8402;51.466;6.806;2023-04-06T03:44:51;18.23;;;6.97;;
16579;SDS011;8402;51.466;6.806;2023-04-06T03:47:21;13.53;;;6.47;;
16579;SDS011;8402;51.466;6.806;2023-04-06T03:49:52;16.47;;;6.20;;
16579;SDS011;8402;51.466;6.806;2023-04-06T03:52:22;14.97;;;6.87;;
16579;SDS011;8402;51.466;6.806;2023-04-06T03:54:55;13.57;;;6.37;;
16579;SDS011;8402;51.466;6.806;2023-04-06T03:57:25;16.57;;;7.20;;
16579;SDS011;8402;51.466;6.806;2023-04-06T03:59:55;16.60;;;6.70;;
16579;SDS011;8402;51.466;6.806;2023-04-06T04:02:25;13.40;;;6.57;;
16579;SDS011;8402;51.466;6.806;2023-04-06T04:04:55;14.27;;;6.33;;
16579;SDS011;8402;51.466;6.806;2023-04-06T04:07:26;10.40;;;5.67;;
16579;SDS011;8402;51.466;6.806;2023-04-06T04:09:59;16.10;;;6.53;;
16579;SDS011;8402;51.466;6.806;2023-04-06T04:12:29;12.17;;;6.40;;
16579;SDS011;8402;51.466;6.806;2023-04-06T04:14:59;16.20;;;6.47;;
16579;SDS011;8402;51.466;6.806;2023-04-06T04:17:29;11.60;;;6.10;;
16579;SDS011;8402;51.466;6.806;2023-04-06T04:19:59;19.03;;;7.20;;
16579;SDS011;8402;51.466;6.806;2023-04-06T04:22:29;16.87;;;6.17;;
16579;SDS011;8402;51.466;6.806;2023-04-06T04:25:02;13.87;;;6.80;;
16579;SDS011;8402;51.466;6.806;2023-04-06T04:27:32;14.30;;;6.50;;
16579;SDS011;8402;51.466;6.806;2023-04-06T04:30:02;16.80;;;6.63;;
16579;SDS011;8402;51.466;6.806;2023-04-06T04:32:33;12.57;;;6.37;;
16579;SDS011;8402;51.466;6.806;2023-04-06T04:35:03;13.77;;;6.57;;
16579;SDS011;8402;51.466;6.806;2023-04-06T04:37:33;16.63;;;7.03;;
16579;SDS011;8402;51.466;6.806;2023-04-06T04:40:08;13.80;;;6.67;;
16579;SDS011;8402;51.466;6.806;2023-04-06T04:42:41;20.73;;;6.33;;
16579;SDS011;8402;51.466;6.806;2023-04-06T04:45:11;14.43;;;6.70;;
16579;SDS011;8402;51.466;6.806;2023-04-06T04:47:41;15.40;;;7.33;;
16579;SDS011;8402;51.466;6.806;2023-04-06T04:50:11;17.03;;;6.67;;
16579;SDS011;8402;51.466;6.806;2023-04-06T04:52:53;15.07;;;6.63;;
16579;SDS011;8402;51.466;6.806;2023-04-06T04:55:26;14.37;;;6.53;;
16579;SDS011;8402;51.466;6.806;2023-04-06T04:57:57;19.50;;;6.70;;
16579;SDS011;8402;51.466;6.806;2023-04-06T05:00:28;15.17;;;7.97;;
16579;SDS011;8402;51.466;6.806;2023-04-06T05:02:58;14.10;;;6.80;;
16579;SDS011;8402;51.466;6.806;2023-04-06T05:05:28;17.20;;;7.13;;
16579;SDS011;8402;51.466;6.806;2023-04-06T05:07:59;15.57;;;6.83;;
16579;SDS011;8402;51.466;6.806;2023-04-06T05:10:31;13.40;;;7.20;;
16579;SDS011;8402;51.466;6.806;2023-04-06T05:13:02;15.00;;;6.77;;
16579;SDS011;8402;51.466;6.806;2023-04-06T05:15:32;12.67;;;6.43;;
16579;SDS011;8402;51.466;6.806;2023-04-06T05:18:04;17.30;;;7.77;;
16579;SDS011;8402;51.466;6.806;2023-04-06T05:20:35;19.03;;;6.83;;
16579;SDS011;8402;51.466;6.806;2023-04-06T05:23:06;15.33;;;6.37;;
16579;SDS011;8402;51.466;6.806;2023-04-06T05:25:38;16.30;;;7.60;;
16579;SDS011;8402;51.466;6.806;2023-04-06T05:28:08;14.80;;;6.97;;
16579;SDS011;8402;51.466;6.806;2023-04-06T05:30:40;17.70;;;7.47;;
16579;SDS011;8402;51.466;6.806;2023-04-06T05:33:11;13.00;;;6.10;;
16579;SDS011;8402;51.466;6.806;2023-04-06T05:35:41;18.17;;;7.70;;
16579;SDS011;8402;51.466;6.806;2023-04-06T05:38:11;14.87;;;6.63;;
16579;SDS011;8402;51.466;6.806;2023-04-06T05:40:44;19.70;;;7.47;;
16579;SDS011;8402;51.466;6.806;2023-04-06T05:43:14;13.63;;;6.23;;
16579;SDS011;8402;51.466;6.806;2023-04-06T05:45:48;15.67;;;6.50;;
16579;SDS011;8402;51.466;6.806;2023-04-06T05:48:18;19.40;;;7.13;;
16579;SDS011;8402;51.466;6.806;2023-04-06T05:50:48;14.67;;;6.40;;
16579;SDS011;8402;51.466;6.806;2023-04-06T05:53:18;16.50;;;6.67;;
16579;SDS011;8402;51.466;6.806;2023-04-06T05:55:51;16.67;;;7.50;;
16579;SDS011;8402;51.466;6.806;2023-04-06T05:58:21;13.77;;;6.13;;
16579;SDS011;8402;51.466;6.806;2023-04-06T06:00:55;15.60;;;6.70;;
16579;SDS011;8402;51.466;6.806;2023-04-06T06:03:26;15.53;;;6.67;;
16579;SDS011;8402;51.466;6.806;2023-04-06T06:06:00;15.90;;;6.50;;
16579;SDS011;8402;51.466;6.806;2023-04-06T06:08:31;13.47;;;6.37;;
16579;SDS011;8402;51.466;6.806;2023-04-06T06:11:07;13.70;;;6.57;;
16579;SDS011;8402;51.466;6.806;2023-04-06T06:13:37;13.03;;;6.57;;
16579;SDS011;8402;51.466;6.806;2023-04-06T06:16:07;14.77;;;5.73;;
16579;SDS011;8402;51.466;6.806;2023-04-06T06:18:37;13.90;;;5.50;;
16579;SDS011;8402;51.466;6.806;2023-04-06T06:21:09;10.37;;;4.57;;
16579;SDS011;8402;51.466;6.806;2023-04-06T06:23:39;15.50;;;5.93;;
16579;SDS011;8402;51.466;6.806;2023-04-06T06:26:12;12.37;;;4.53;;
16579;SDS011;8402;51.466;6.806;2023-04-06T06:28:42;12.17;;;5.70;;
16579;SDS011;8402;51.466;6.806;2023-04-06T06:31:12;11.73;;;5.63;;
16579;SDS011;8402;51.466;6.806;2023-04-06T06:33:42;10.90;;;5.30;;
16579;SDS011;8402;51.466;6.806;2023-04-06T06:36:12;16.13;;;5.20;;
16579;SDS011;8402;51.466;6.806;2023-04-06T06:38:43;13.17;;;5.40;;
16579;SDS011;8402;51.466;6.806;2023-04-06T06:41:15;11.63;;;5.40;;
16579;SDS011;8402;51.466;6.806;2023-04-06T06:43:45;11.63;;;5.00;;
16579;SDS011;8402;51.466;6.806;2023-04-06T06:46:16;11.23;;;5.53;;
16579;SDS011;8402;51.466;6.806;2023-04-06T06:48:46;10.80;;;5.33;;
16579;SDS011;8402;51.466;6.806;2023-04-06T06:51:16;10.87;;;5.83;;
16579;SDS011;8402;51.466;6.806;2023-04-06T06:53:47;10.70;;;5.27;;
16579;SDS011;8402;51.466;6.806;2023-04-06T06:56:20;15.40;;;6.00;;
16579;SDS011;8402;51.466;6.806;2023-04-06T06:58:50;17.57;;;6.67;;
16579;SDS011;8402;51.466;6.806;2023-04-06T07:01:20;13.40;;;6.20;;
16579;SDS011;8402;51.466;6.806;2023-04-06T07:03:50;13.43;;;6.53;;
16579;SDS011;8402;51.466;6.806;2023-04-06T07:06:20;9.10;;;5.13;;
16579;SDS011;8402;51.466;6.806;2023-04-06T07:08:50;14.77;;;6.50;;
16579;SDS011;8402;51.466;6.806;2023-04-06T07:11:22;11.63;;;5.87;;
16579;SDS011;8402;51.466;6.806;2023-04-06T07:13:53;21.70;;;5.50;;
16579;SDS011;8402;51.466;6.806;2023-04-06T07:16:22;12.47;;;5.87;;
16579;SDS011;8402;51.466;6.806;2023-04-06T07:18:53;8.90;;;5.30;;
16579;SDS011;8402;51.466;6.806;2023-04-06T07:21:23;13.33;;;6.03;;
16579;SDS011;8402;51.466;6.806;2023-04-06T07:23:53;10.27;;;5.70;;
16579;SDS011;8402;51.466;6.806;2023-04-06T07:26:28;10.27;;;5.07;;
16579;SDS011;8402;51.466;6.806;2023-04-06T07:28:58;29.17;;;7.73;;
16579;SDS011;8402;51.466;6.806;2023-04-06T07:31:28;22.30;;;6.70;;
16579;SDS011;8402;51.466;6.806;2023-04-06T07:33:58;15.03;;;5.93;;
16579;SDS011;8402;51.466;6.806;2023-04-06T07:36:30;19.07;;;6.47;;
16579;SDS011;8402;51.466;6.806;2023-04-06T07:39:01;11.07;;;6.30;;
16579;SDS011;8402;51.466;6.806;2023-04-06T07:41:33;13.50;;;7.07;;
16579;SDS011;8402;51.466;6.806;2023-04-06T07:44:04;14.13;;;6.40;;
16579;SDS011;8402;51.466;6.806;2023-04-06T07:46:34;14.67;;;6.87;;
16579;SDS011;8402;51.466;6.806;2023-04-06T07:49:04;13.53;;;6.90;;
16579;SDS011;8402;51.466;6.806;2023-04-06T07:51:35;14.23;;;6.70;;
16579;SDS011;8402;51.466;6.806;2023-04-06T07:54:06;13.47;;;6.70;;
16579;SDS011;8402;51.466;6.806;2023-04-06T07:56:38;15.80;;;7.03;;
16579;SDS011;8402;51.466;6.806;2023-04-06T07:59:08;14.80;;;6.90;;
16579;SDS011;8402;51.466;6.806;2023-04-06T08:01:40;12.47;;;6.67;;
16579;SDS011;8402;51.466;6.806;2023-04-06T08:04:10;14.57;;;6.87;;
16579;SDS011;8402;51.466;6.806;2023-04-06T08:06:40;12.63;;;6.97;;
16579;SDS011;8402;51.466;6.806;2023-04-06T08:09:10;14.70;;;6.77;;
16579;SDS011;8402;51.466;6.806;2023-04-06T08:11:43;11.20;;;6.03;;
16579;SDS011;8402;51.466;6.806;2023-04-06T08:14:15;16.17;;;7.67;;
16579;SDS011;8402;51.466;6.806;2023-04-06T08:16:45;12.20;;;7.37;;
16579;SDS011;8402;51.466;6.806;2023-04-06T08:19:15;11.67;;;6.83;;
16579;SDS011;8402;51.466;6.806;2023-04-06T08:21:45;13.83;;;6.30;;
16579;SDS011;8402;51.466;6.806;2023-04-06T08:24:21;15.77;;;7.30;;
16579;SDS011;8402;51.466;6.806;2023-04-06T08:26:53;14.77;;;7.27;;
16579;SDS011;8402;51.466;6.806;2023-04-06T08:29:24;14.60;;;7.07;;
16579;SDS011;8402;51.466;6.806;2023-04-06T08:31:54;13.07;;;6.90;;
16579;SDS011;8402;51.466;6.806;2023-04-06T08:34:24;15.93;;;7.53;;
16579;SDS011;8402;51.466;6.806;2023-04-06T08:36:54;14.90;;;7.07;;
16579;SDS011;8402;51.466;6.806;2023-04-06T08:39:24;14.90;;;7.20;;
16579;SDS011;8402;51.466;6.806;2023-04-06T08:41:57;13.10;;;6.93;;
16579;SDS011;8402;51.466;6.806;2023-04-06T08:44:29;13.53;;;7.00;;
16579;SDS011;8402;51.466;6.806;2023-04-06T08:47:01;13.90;;;7.20;;
16579;SDS011;8402;51.466;6.806;2023-04-06T08:49:34;12.80;;;7.70;;
16579;SDS011;8402;51.466;6.806;2023-04-06T08:52:07;14.50;;;7.50;;
16579;SDS011;8402;51.466;6.806;2023-04-06T08:54:37;15.93;;;7.67;;
16579;SDS011;8402;51.466;6.806;2023-04-06T08:57:10;15.73;;;7.53;;
16579;SDS011;8402;51.466;6.806;2023-04-06T08:59:41;18.67;;;8.03;;
16579;SDS011;8402;51.466;6.806;2023-04-06T09:02:15;13.93;;;7.60;;
16579;SDS011;8402;51.466;6.806;2023-04-06T09:04:47;13.50;;;7.27;;
16579;SDS011;8402;51.466;6.806;2023-04-06T09:07:23;13.07;;;7.03;;
16579;SDS011;8402;51.466;6.806;2023-04-06T09:09:53;14.13;;;7.93;;
16579;SDS011;8402;51.466;6.806;2023-04-06T09:12:29;15.93;;;8.23;;
16579;SDS011;8402;51.466;6.806;2023-04-06T09:15:00;15.80;;;8.67;;
16579;SDS011;8402;51.466;6.806;2023-04-06T09:17:31;13.83;;;7.83;;
16579;SDS011;8402;51.466;6.806;2023-04-06T09:20:03;15.13;;;8.23;;
16579;SDS011;8402;51.466;6.806;2023-04-06T09:22:35;15.80;;;9.07;;
16579;SDS011;8402;51.466;6.806;2023-04-06T09:25:06;18.33;;;9.57;;
16579;SDS011;8402;51.466;6.806;2023-04-06T09:27:40;17.80;;;9.27;;
16579;SDS011;8402;51.466;6.806;2023-04-06T09:30:11;19.27;;;9.87;;
16579;SDS011;8402;51.466;6.806;2023-04-06T09:32:46;20.30;;;9.17;;
16579;SDS011;8402;51.466;6.806;2023-04-06T09:35:18;20.50;;;9.80;;
16579;SDS011;8402;51.466;6.806;2023-04-06T09:37:49;20.37;;;9.93;;
16579;SDS011;8402;51.466;6.806;2023-04-06T09:40:21;17.47;;;9.03;;
16579;SDS011;8402;51.466;6.806;2023-04-06T09:42:54;27.93;;;9.37;;
16579;SDS011;8402;51.466;6.806;2023-04-06T09:45:26;16.73;;;8.27;;
16579;SDS011;8402;51.466;6.806;2023-04-06T09:47:58;18.10;;;8.87;;
16579;SDS011;8402;51.466;6.806;2023-04-06T09:50:29;20.70;;;8.60;;
16579;SDS011;8402;51.466;6.806;2023-04-06T09:53:01;17.27;;;9.63;;
16579;SDS011;8402;51.466;6.806;2023-04-06T09:55:33;19.83;;;8.83;;
16579;SDS011;8402;51.466;6.806;2023-04-06T09:58:12;17.97;;;9.07;;
16579;SDS011;8402;51.466;6.806;2023-04-06T10:00:47;15.63;;;8.70;;
16579;SDS011;8402;51.466;6.806;2023-04-06T10:03:25;16.77;;;9.13;;
16579;SDS011;8402;51.466;6.806;2023-04-06T10:06:05;16.10;;;9.13;;
16579;SDS011;8402;51.466;6.806;2023-04-06T10:08:40;17.50;;;9.33;;
16579;SDS011;8402;51.466;6.806;2023-04-06T10:11:12;17.30;;;8.90;;
16579;SDS011;8402;51.466;6.806;2023-04-06T10:13:45;19.50;;;9.13;;
16579;SDS011;8402;51.466;6.806;2023-04-06T10:16:17;14.77;;;8.50;;
16579;SDS011;8402;51.466;6.806;2023-04-06T10:18:52;18.10;;;8.50;;
16579;SDS011;8402;51.466;6.806;2023-04-06T10:21:26;16.70;;;8.47;;
16579;SDS011;8402;51.466;6.806;2023-04-06T10:23:58;16.80;;;8.87;;
16579;SDS011;8402;51.466;6.806;2023-04-06T10:26:30;15.83;;;9.07;;
16579;SDS011;8402;51.466;6.806;2023-04-06T10:29:04;15.33;;;8.60;;
16579;SDS011;8402;51.466;6.806;2023-04-06T10:31:39;15.37;;;8.80;;
16579;SDS011;8402;51.466;6.806;2023-04-06T10:34:12;22.73;;;9.53;;
16579;SDS011;8402;51.466;6.806;2023-04-06T10:36:42;17.90;;;8.87;;
16579;SDS011;8402;51.466;6.806;2023-04-06T10:39:12;18.63;;;9.97;;
16579;SDS011;8402;51.466;6.806;2023-04-06T10:41:44;19.33;;;9.33;;
16579;SDS011;8402;51.466;6.806;2023-04-06T10:44:22;24.87;;;9.33;;
16579;SDS011;8402;51.466;6.806;2023-04-06T10:46:53;20.03;;;10.30;;
16579;SDS011;8402;51.466;6.806;2023-04-06T10:49:27;26.33;;;10.47;;
16579;SDS011;8402;51.466;6.806;2023-04-06T10:51:57;22.60;;;10.20;;
16579;SDS011;8402;51.466;6.806;2023-04-06T10:54:27;76.90;;;15.43;;
16579;SDS011;8402;51.466;6.806;2023-04-06T10:56:59;26.47;;;10.40;;
16579;SDS011;8402;51.466;6.806;2023-04-06T10:59:32;28.43;;;10.17;;
16579;SDS011;8402;51.466;6.806;2023-04-06T11:02:02;21.90;;;10.37;;
16579;SDS011;8402;51.466;6.806;2023-04-06T11:04:35;22.13;;;10.27;;
16579;SDS011;8402;51.466;6.806;2023-04-06T11:07:05;18.97;;;8.97;;
16579;SDS011;8402;51.466;6.806;2023-04-06T11:09:35;21.83;;;9.93;;
16579;SDS011;8402;51.466;6.806;2023-04-06T11:12:05;23.07;;;9.37;;
16579;SDS011;8402;51.466;6.806;2023-04-06T11:14:38;23.80;;;10.17;;
16579;SDS011;8402;51.466;6.806;2023-04-06T11:17:08;20.17;;;9.27;;
16579;SDS011;8402;51.466;6.806;2023-04-06T11:19:38;19.10;;;9.10;;
16579;SDS011;8402;51.466;6.806;2023-04-06T11:22:08;20.27;;;8.53;;
16579;SDS011;8402;51.466;6.806;2023-04-06T11:24:39;21.50;;;10.30;;
16579;SDS011;8402;51.466;6.806;2023-04-06T11:27:09;20.70;;;10.20;;
16579;SDS011;8402;51.466;6.806;2023-04-06T11:29:41;21.30;;;9.80;;
16579;SDS011;8402;51.466;6.806;2023-04-06T11:32:19;21.53;;;9.73;;
16579;SDS011;8402;51.466;6.806;2023-04-06T11:34:51;20.37;;;9.93;;
16579;SDS011;8402;51.466;6.806;2023-04-06T11:37:21;24.63;;;10.03;;
16579;SDS011;8402;51.466;6.806;2023-04-06T11:39:55;27.50;;;11.73;;
16579;SDS011;8402;51.466;6.806;2023-04-06T11:42:25;22.63;;;10.30;;
16579;SDS011;8402;51.466;6.806;2023-04-06T11:44:59;20.67;;;10.90;;
16579;SDS011;8402;51.466;6.806;2023-04-06T11:47:29;27.83;;;11.37;;
16579;SDS011;8402;51.466;6.806;2023-04-06T11:50:05;21.47;;;10.70;;
16579;SDS011;8402;51.466;6.806;2023-04-06T11:52:36;22.47;;;11.27;;
16579;SDS011;8402;51.466;6.806;2023-04-06T11:55:11;22.40;;;11.17;;
16579;SDS011;8402;51.466;6.806;2023-04-06T11:57:42;29.83;;;11.07;;
16579;SDS011;8402;51.466;6.806;2023-04-06T12:00:16;25.33;;;11.33;;
16579;SDS011;8402;51.466;6.806;2023-04-06T12:02:48;26.33;;;11.83;;
16579;SDS011;8402;51.466;6.806;2023-04-06T12:05:18;22.00;;;10.33;;
16579;SDS011;8402;51.466;6.806;2023-04-06T12:07:49;23.30;;;11.43;;
16579;SDS011;8402;51.466;6.806;2023-04-06T12:10:19;20.87;;;11.60;;
16579;SDS011;8402;51.466;6.806;2023-04-06T12:12:49;20.60;;;11.43;;
16579;SDS011;8402;51.466;6.806;2023-04-06T12:15:22;20.30;;;11.03;;
16579;SDS011;8402;51.466;6.806;2023-04-06T12:17:52;23.63;;;10.57;;
16579;SDS011;8402;51.466;6.806;2023-04-06T12:20:22;19.30;;;9.70;;
16579;SDS011;8402;51.466;6.806;2023-04-06T12:22:53;19.50;;;10.73;;
16579;SDS011;8402;51.466;6.806;2023-04-06T12:25:23;20.37;;;9.67;;
16579;SDS011;8402;51.466;6.806;2023-04-06T12:27:54;19.73;;;9.93;;
16579;SDS011;8402;51.466;6.806;2023-04-06T12:30:27;20.60;;;10.27;;
16579;SDS011;8402;51.466;6.806;2023-04-06T12:32:57;22.17;;;10.17;;
16579;SDS011;8402;51.466;6.806;2023-04-06T12:35:27;20.83;;;9.90;;
16579;SDS011;8402;51.466;6.806;2023-04-06T12:37:57;23.73;;;10.50;;
16579;SDS011;8402;51.466;6.806;2023-04-06T12:40:27;27.60;;;10.37;;
16579;SDS011;8402;51.466;6.806;2023-04-06T12:42:57;19.80;;;10.73;;
16579;SDS011;8402;51.466;6.806;2023-04-06T12:45:29;18.00;;;9.83;;
16579;SDS011;8402;51.466;6.806;2023-04-06T12:48:00;21.93;;;11.67;;
16579;SDS011;8402;51.466;6.806;2023-04-06T12:50:30;25.97;;;11.07;;
16579;SDS011;8402;51.466;6.806;2023-04-06T12:53:00;26.23;;;10.70;;
16579;SDS011;8402;51.466;6.806;2023-04-06T12:55:30;20.23;;;10.27;;
16579;SDS011;8402;51.466;6.806;2023-04-06T12:58:02;27.53;;;10.47;;
16579;SDS011;8402;51.466;6.806;2023-04-06T13:00:35;20.73;;;10.17;;
16579;SDS011;8402;51.466;6.806;2023-04-06T13:03:05;17.50;;;8.53;;
16579;SDS011;8402;51.466;6.806;2023-04-06T13:05:35;16.57;;;8.50;;
16579;SDS011;8402;51.466;6.806;2023-04-06T13:08:05;20.50;;;9.40;;
16579;SDS011;8402;51.466;6.806;2023-04-06T13:10:35;19.23;;;9.07;;
16579;SDS011;8402;51.466;6.806;2023-04-06T13:13:05;20.30;;;7.67;;
16579;SDS011;8402;51.466;6.806;2023-04-06T13:15:38;15.37;;;7.90;;
16579;SDS011;8402;51.466;6.806;2023-04-06T13:18:08;15.77;;;8.00;;
16579;SDS011;8402;51.466;6.806;2023-04-06T13:20:38;16.23;;;7.70;;
16579;SDS011;8402;51.466;6.806;2023-04-06T13:23:09;15.77;;;7.97;;
16579;SDS011;8402;51.466;6.806;2023-04-06T13:25:39;11.07;;;6.37;;
16579;SDS011;8402;51.466;6.806;2023-04-06T13:28:09;13.50;;;6.53;;
16579;SDS011;8402;51.466;6.806;2023-04-06T13:30:42;14.90;;;7.00;;
16579;SDS011;8402;51.466;6.806;2023-04-06T13:33:16;14.40;;;6.43;;
16579;SDS011;8402;51.466;6.806;2023-04-06T13:35:48;14.67;;;6.80;;
16579;SDS011;8402;51.466;6.806;2023-04-06T13:38:19;16.33;;;6.50;;
16579;SDS011;8402;51.466;6.806;2023-04-06T13:40:50;10.17;;;5.07;;
16579;SDS011;8402;51.466;6.806;2023-04-06T13:43:20;9.80;;;5.33;;
16579;SDS011;8402;51.466;6.806;2023-04-06T13:45:55;16.13;;;6.10;;
16579;SDS011;8402;51.466;6.806;2023-04-06T13:48:27;19.13;;;6.83;;
16579;SDS011;8402;51.466;6.806;2023-04-06T13:50:57;12.53;;;6.07;;
16579;SDS011;8402;51.466;6.806;2023-04-06T13:53:36;10.40;;;6.17;;
16579;SDS011;8402;51.466;6.806;2023-04-06T13:56:07;13.63;;;6.37;;
16579;SDS011;8402;51.466;6.806;2023-04-06T13:58:37;15.93;;;5.63;;
16579;SDS011;8402;51.466;6.806;2023-04-06T14:01:10;12.93;;;6.07;;
16579;SDS011;8402;51.466;6.806;2023-04-06T14:03:40;9.20;;;5.80;;
16579;SDS011;8402;51.466;6.806;2023-04-06T14:06:14;11.37;;;5.90;;
16579;SDS011;8402;51.466;6.806;2023-04-06T14:08:47;14.00;;;6.60;;
16579;SDS011;8402;51.466;6.806;2023-04-06T14:11:16;11.43;;;6.77;;
16579;SDS011;8402;51.466;6.806;2023-04-06T14:13:47;11.97;;;7.03;;
16579;SDS011;8402;51.466;6.806;2023-04-06T14:16:22;12.57;;;6.83;;
16579;SDS011;8402;51.466;6.806;2023-04-06T14:18:53;12.33;;;6.73;;
16579;SDS011;8402;51.466;6.806;2023-04-06T14:21:24;11.50;;;6.67;;
16579;SDS011;8402;51.466;6.806;2023-04-06T14:23:54;12.50;;;6.73;;
16579;SDS011;8402;51.466;6.806;2023-04-06T14:26:25;11.40;;;6.53;;
16579;SDS011;8402;51.466;6.806;2023-04-06T14:28:55;11.03;;;6.43;;
16579;SDS011;8402;51.466;6.806;2023-04-06T14:31:28;10.47;;;6.03;;
16579;SDS011;8402;51.466;6.806;2023-04-06T14:33:58;20.03;;;7.43;;
16579;SDS011;8402;51.466;6.806;2023-04-06T14:36:30;12.13;;;6.60;;
16579;SDS011;8402;51.466;6.806;2023-04-06T14:39:03;11.40;;;6.87;;
16579;SDS011;8402;51.466;6.806;2023-04-06T14:41:33;12.07;;;6.60;;
16579;SDS011;8402;51.466;6.806;2023-04-06T14:44:04;10.07;;;5.63;;
16579;SDS011;8402;51.466;6.806;2023-04-06T14:46:39;10.00;;;5.57;;
16579;SDS011;8402;51.466;6.806;2023-04-06T14:49:09;12.50;;;6.03;;
16579;SDS011;8402;51.466;6.806;2023-04-06T14:51:40;14.57;;;5.93;;
16579;SDS011;8402;51.466;6.806;2023-04-06T14:54:10;9.97;;;5.53;;
16579;SDS011;8402;51.466;6.806;2023-04-06T14:56:40;9.47;;;5.60;;
16579;SDS011;8402;51.466;6.806;2023-04-06T14:59:10;11.17;;;6.30;;
16579;SDS011;8402;51.466;6.806;2023-04-06T15:01:42;9.70;;;5.90;;
16579;SDS011;8402;51.466;6.806;2023-04-06T15:04:12;9.83;;;6.03;;
16579;SDS011;8402;51.466;6.806;2023-04-06T15:06:43;10.47;;;6.67;;
16579;SDS011;8402;51.466;6.806;2023-04-06T15:09:15;9.80;;;6.13;;